Time;durP1;ratioP1;P1;durP2;ratioP2;P2;SDS_P1;SDS_P2;PMS_P1;PMS_P2;Temp;Humidity;BMP_temperature;BMP_pressure;BME280_temperature;BME280_humidity;BME280_pressure;Samples;Min_cycle;Max_cycle;Signal;HPM_P1;HPM_P2
2023/01/31 00:02:28;;;;;;;;;;;;;;;2.72;100.00;97923.98;67825;1277;1016357;-59
2023/01/31 00:05:31;;;;;;;;;;;;;;;2.67;100.00;97917.44;67844;1278;1015889;-59
2023/01/31 00:08:33;;;;;;;;;;;;;;;2.66;100.00;97921.48;67877;1277;1016355;-59
2023/01/31 00:11:35;;;;;;;;;;;;;;;2.64;100.00;97935.20;65261;1277;6364806;-59
2023/01/31 00:14:38;;;;;;;;;;;;;;;2.61;100.00;97928.59;67811;1277;1016676;-59
2023/01/31 00:17:40;;;;;;;;;;;;;;;2.63;100.00;97924.55;67862;1278;1016707;-59
2023/01/31 00:20:43;;;;;;;;;;;;;;;2.61;100.00;97927.73;67874;1277;1016483;-59
2023/01/31 00:23:53;;;;;;;;;;;;;;;2.62;100.00;97928.55;67816;1277;1016114;-59
2023/01/31 00:26:56;;;;;;;;;;;;;;;2.66;100.00;97925.65;67837;1277;1016636;-59
2023/01/31 00:29:59;;;;;;;;;;;;;;;2.67;100.00;97931.10;67887;1277;1015843;-59
2023/01/31 00:33:01;;;;;;;;;;;;;;;2.67;100.00;97926.77;67896;1277;1017489;-59
2023/01/31 00:36:04;;;;;;;;;;;;;;;2.74;100.00;97936.64;67836;1277;1016484;-59
2023/01/31 00:39:06;;;;;;;;;;;;;;;2.76;100.00;97936.26;67864;1277;1016386;-59
2023/01/31 00:42:09;;;;;;;;;;;;;;;2.66;100.00;97941.33;67874;1277;1017281;-59
2023/01/31 00:45:11;;;;;;;;;;;;;;;2.65;100.00;97946.73;67898;1277;1015911;-59
2023/01/31 00:48:13;;;;;;;;;;;;;;;2.63;100.00;97946.64;67854;1277;1015713;-59
2023/01/31 00:51:16;;;;;;;;;;;;;;;2.58;100.00;97947.54;67794;1277;1016521;-59
2023/01/31 00:54:18;;;;;;;;;;;;;;;2.60;100.00;97941.94;67870;1277;1016461;-59
2023/01/31 00:57:21;;;;;;;;;;;;;;;2.57;100.00;97951.54;67855;1277;1017249;-59
2023/01/31 01:00:23;;;;;;;;;;;;;;;2.56;100.00;97955.91;67854;1277;1015978;-59
2023/01/31 01:03:26;;;;;;;;;;;;;;;2.55;100.00;97966.14;67819;1277;1019810;-59
2023/01/31 01:06:28;;;;;;;;;;;;;;;2.56;100.00;97971.10;67823;1277;1019762;-59
2023/01/31 01:09:30;;;;;;;;;;;;;;;2.58;100.00;97974.77;67829;1277;1016087;-59
2023/01/31 01:12:33;;;;;;;;;;;;;;;2.56;100.00;97983.16;67825;1277;1016268;-59
2023/01/31 01:15:35;;;;;;;;;;;;;;;2.56;100.00;97989.36;67872;1277;1016522;-59
2023/01/31 01:18:37;;;;;;;;;;;;;;;2.61;100.00;97985.03;67870;1277;1016530;-59
2023/01/31 01:21:40;;;;;;;;;;;;;;;2.56;100.00;97986.46;67886;1277;1016940;-59
2023/01/31 01:24:42;;;;;;;;;;;;;;;2.59;100.00;97992.20;67845;1277;1016358;-59
2023/01/31 01:27:45;;;;;;;;;;;;;;;2.61;100.00;98005.42;67845;1277;1016421;-59
2023/01/31 01:30:47;;;;;;;;;;;;;;;2.67;100.00;98010.34;67877;1277;1016483;-59
2023/01/31 01:33:49;;;;;;;;;;;;;;;2.66;100.00;98012.27;67852;1277;1016366;-59
2023/01/31 01:36:52;;;;;;;;;;;;;;;2.69;100.00;98013.55;67870;1277;1016384;-59
2023/01/31 01:39:54;;;;;;;;;;;;;;;2.82;100.00;98007.81;67843;1277;1016075;-59
2023/01/31 01:42:57;;;;;;;;;;;;;;;2.80;100.00;98007.55;67841;1277;1017295;-59
2023/01/31 01:45:59;;;;;;;;;;;;;;;2.86;100.00;98016.44;67819;1277;1016317;-59
2023/01/31 01:49:01;;;;;;;;;;;;;;;2.88;100.00;98017.77;67874;1277;1016254;-59
2023/01/31 01:52:04;;;;;;;;;;;;;;;2.87;100.00;98016.25;67876;1277;1016547;-59
2023/01/31 01:55:06;;;;;;;;;;;;;;;2.88;100.00;98018.96;67879;1277;1016351;-59
2023/01/31 01:58:09;;;;;;;;;;;;;;;2.84;100.00;98022.07;67836;1277;1016321;-59
2023/01/31 02:01:12;;;;;;;;;;;;;;;2.85;100.00;98022.71;67830;1277;1016690;-59
2023/01/31 02:04:14;;;;;;;;;;;;;;;2.85;100.00;98027.36;67851;1277;1016406;-59
2023/01/31 02:07:17;;;;;;;;;;;;;;;2.83;100.00;98044.58;67836;1277;1016552;-59
2023/01/31 02:10:19;;;;;;;;;;;;;;;2.90;100.00;98041.46;67828;1277;1018478;-59
2023/01/31 02:13:22;;;;;;;;;;;;;;;2.88;100.00;98041.58;67878;1277;1016256;-59
2023/01/31 02:16:24;;;;;;;;;;;;;;;2.84;100.00;98047.10;67865;1277;1016622;-59
2023/01/31 02:19:27;;;;;;;;;;;;;;;2.85;100.00;98056.23;67883;1277;1019617;-59
2023/01/31 02:22:29;;;;;;;;;;;;;;;2.83;100.00;98061.98;67851;1277;1017170;-59
2023/01/31 02:25:31;;;;;;;;;;;;;;;2.79;100.00;98059.92;67829;1278;1016552;-59
2023/01/31 02:28:34;;;;;;;;;;;;;;;2.72;100.00;98063.10;67836;1277;1016191;-59
2023/01/31 02:31:36;;;;;;;;;;;;;;;2.75;100.00;98068.17;67883;1277;1016510;-59
2023/01/31 02:34:39;;;;;;;;;;;;;;;2.71;100.00;98078.55;67877;1277;1016439;-59
2023/01/31 02:37:41;;;;;;;;;;;;;;;2.72;100.00;98082.63;67831;1277;1016282;-59
2023/01/31 02:40:43;;;;;;;;;;;;;;;2.73;100.00;98085.53;67801;1277;1016174;-59
2023/01/31 02:47:06;;;;;;;;;;;;;;;2.73;100.00;98092.09;67842;1277;1016800;-59
2023/01/31 02:50:08;;;;;;;;;;;;;;;2.69;100.00;98090.89;67861;1277;1016287;-59
2023/01/31 02:53:11;;;;;;;;;;;;;;;2.69;100.00;98092.78;67881;1277;1016422;-59
2023/01/31 02:56:17;;;;;;;;;;;;;;;2.69;100.00;98092.79;67874;1277;1016398;-59
2023/01/31 02:59:21;;;;;;;;;;;;;;;2.69;100.00;98089.16;67862;1277;1016262;-59
2023/01/31 03:02:23;;;;;;;;;;;;;;;2.71;100.00;98086.63;67908;1277;1016254;-59
2023/01/31 03:05:25;;;;;;;;;;;;;;;2.77;100.00;98092.96;67842;1277;1015659;-59
2023/01/31 03:08:28;;;;;;;;;;;;;;;2.78;100.00;98093.61;67820;1277;1016500;-59
2023/01/31 03:11:30;;;;;;;;;;;;;;;2.82;100.00;98099.33;67882;1277;1018642;-59
2023/01/31 03:14:33;;;;;;;;;;;;;;;2.92;100.00;98100.48;67862;1277;1016260;-59
2023/01/31 03:17:35;;;;;;;;;;;;;;;3.09;100.00;98119.63;67875;1277;1016626;-59
2023/01/31 03:20:39;;;;;;;;;;;;;;;3.07;100.00;98111.08;67832;1277;1017097;-58
2023/01/31 03:23:41;;;;;;;;;;;;;;;3.05;100.00;98115.30;67828;1277;1016431;-59
2023/01/31 03:26:44;;;;;;;;;;;;;;;2.96;100.00;98117.05;67857;1277;1016523;-59
2023/01/31 03:29:46;;;;;;;;;;;;;;;2.84;100.00;98132.41;67845;1277;1016387;-59
2023/01/31 03:32:49;;;;;;;;;;;;;;;2.81;100.00;98140.66;67872;1277;1016595;-59
2023/01/31 03:35:51;;;;;;;;;;;;;;;2.84;100.00;98139.31;67879;1277;1016119;-59
2023/01/31 03:38:53;;;;;;;;;;;;;;;2.85;100.00;98145.68;67876;1277;1016333;-59
2023/01/31 03:41:56;;;;;;;;;;;;;;;2.83;100.00;98159.58;67865;1277;1016622;-59
2023/01/31 03:44:58;;;;;;;;;;;;;;;2.87;100.00;98163.70;67836;1277;1016507;-59
2023/01/31 03:48:02;;;;;;;;;;;;;;;2.91;100.00;98162.86;67846;1277;1016439;-59
2023/01/31 03:51:04;;;;;;;;;;;;;;;2.83;100.00;98168.71;67820;1277;1016368;-59
2023/01/31 03:54:07;;;;;;;;;;;;;;;2.77;100.00;98165.81;67834;1277;1016237;-59
2023/01/31 03:57:09;;;;;;;;;;;;;;;2.76;100.00;98167.23;67886;1277;1016359;-59
2023/01/31 04:00:12;;;;;;;;;;;;;;;2.78;100.00;98164.77;67901;1277;1016950;-58
2023/01/31 04:03:14;;;;;;;;;;;;;;;2.88;100.00;98171.94;67886;1277;1016415;-59
2023/01/31 04:06:17;;;;;;;;;;;;;;;2.90;100.00;98173.42;67856;1277;1016265;-59
2023/01/31 04:09:20;;;;;;;;;;;;;;;2.84;100.00;98183.34;67879;1277;1016493;-59
2023/01/31 04:12:22;;;;;;;;;;;;;;;2.89;100.00;98176.58;67888;1277;1016512;-59
2023/01/31 04:15:24;;;;;;;;;;;;;;;2.85;100.00;98186.76;67904;1277;1016056;-59
2023/01/31 04:18:27;;;;;;;;;;;;;;;2.84;100.00;98197.86;67867;1277;1016110;-59
2023/01/31 04:21:29;;;;;;;;;;;;;;;2.83;100.00;98198.75;67837;1277;1016439;-59
2023/01/31 04:24:32;;;;;;;;;;;;;;;2.83;100.00;98197.19;67852;1276;1018913;-59
2023/01/31 04:27:34;;;;;;;;;;;;;;;2.78;100.00;98202.23;67856;1277;1015984;-59
2023/01/31 04:30:36;;;;;;;;;;;;;;;2.75;100.00;98199.23;67884;1277;1016309;-59
2023/01/31 04:33:39;;;;;;;;;;;;;;;2.75;100.00;98206.50;67885;1277;1017076;-59
2023/01/31 04:36:41;;;;;;;;;;;;;;;2.78;100.00;98210.17;67852;1277;1016416;-59
2023/01/31 04:39:43;;;;;;;;;;;;;;;2.76;100.00;98217.85;67853;1277;1016101;-59
2023/01/31 04:42:46;;;;;;;;;;;;;;;2.72;100.00;98226.62;67810;1277;1016416;-59
2023/01/31 04:45:48;;;;;;;;;;;;;;;2.73;100.00;98228.67;67887;1277;1016406;-58
2023/01/31 04:48:51;;;;;;;;;;;;;;;2.75;100.00;98233.75;67882;1277;1016607;-59
2023/01/31 04:51:53;;;;;;;;;;;;;;;2.75;100.00;98237.23;67844;1277;1018471;-59
2023/01/31 04:54:55;;;;;;;;;;;;;;;2.74;100.00;98258.13;67828;1277;1016417;-59
2023/01/31 04:57:58;;;;;;;;;;;;;;;2.79;100.00;98254.48;67853;1277;1016298;-59
2023/01/31 05:01:00;;;;;;;;;;;;;;;2.81;100.00;98261.70;67893;1277;1016487;-59
2023/01/31 05:04:03;;;;;;;;;;;;;;;2.87;100.00;98257.30;67896;1277;1016433;-59
2023/01/31 05:07:05;;;;;;;;;;;;;;;2.81;100.00;98260.31;67878;1277;1016497;-59
2023/01/31 05:10:07;;;;;;;;;;;;;;;2.82;100.00;98268.19;67858;1277;1016188;-59
2023/01/31 05:13:10;;;;;;;;;;;;;;;2.80;100.00;98267.60;67820;1277;1016451;-59
2023/01/31 05:16:12;;;;;;;;;;;;;;;2.84;100.00;98270.75;67868;1277;1018398;-59
2023/01/31 05:19:15;;;;;;;;;;;;;;;2.87;100.00;98274.23;67880;1277;1016420;-59
2023/01/31 05:22:21;;;;;;;;;;;;;;;2.80;100.00;98285.70;67885;1277;1016442;-59
2023/01/31 05:25:23;;;;;;;;;;;;;;;2.85;100.00;98282.58;67861;1277;1016629;-58
2023/01/31 05:28:26;;;;;;;;;;;;;;;2.91;100.00;98289.28;67835;1277;1016392;-59
2023/01/31 05:31:28;;;;;;;;;;;;;;;2.89;100.00;98292.31;67832;1277;1016093;-58
2023/01/31 05:34:32;;;;;;;;;;;;;;;2.88;100.00;98290.94;67865;1277;1016398;-59
2023/01/31 05:37:34;;;;;;;;;;;;;;;2.86;100.00;98298.77;67840;1277;1018946;-59
2023/01/31 05:40:36;;;;;;;;;;;;;;;2.80;100.00;98309.21;67829;1277;1015944;-59
2023/01/31 05:43:39;;;;;;;;;;;;;;;2.81;100.00;98311.91;67883;1277;1016320;-59
2023/01/31 05:46:41;;;;;;;;;;;;;;;2.79;100.00;98316.48;67903;1277;1016333;-59
2023/01/31 05:49:44;;;;;;;;;;;;;;;2.71;100.00;98325.77;67846;1277;1016154;-59
2023/01/31 05:52:46;;;;;;;;;;;;;;;2.75;100.00;98332.19;67796;1277;1016503;-59
2023/01/31 05:55:49;;;;;;;;;;;;;;;2.74;100.00;98337.90;67827;1277;1018532;-59
2023/01/31 05:58:51;;;;;;;;;;;;;;;2.77;100.00;98338.32;67860;1277;1016427;-59
2023/01/31 06:01:53;;;;;;;;;;;;;;;2.82;100.00;98346.95;67885;1277;1016821;-59
2023/01/31 06:04:56;;;;;;;;;;;;;;;2.78;100.00;98352.10;67817;1277;1016394;-59
2023/01/31 06:07:58;;;;;;;;;;;;;;;2.72;100.00;98360.25;67838;1277;1016378;-59
2023/01/31 06:11:01;;;;;;;;;;;;;;;2.72;100.00;98365.96;67926;1277;1016045;-59
2023/01/31 06:14:03;;;;;;;;;;;;;;;2.76;100.00;98367.55;67882;1277;1016420;-59
2023/01/31 06:17:05;;;;;;;;;;;;;;;2.75;100.00;98383.11;67864;1277;1016405;-59
2023/01/31 06:20:08;;;;;;;;;;;;;;;2.83;100.00;98377.83;67837;1277;1016426;-59
2023/01/31 06:23:10;;;;;;;;;;;;;;;2.85;100.00;98387.58;67826;1277;1016473;-59
2023/01/31 06:26:13;;;;;;;;;;;;;;;2.86;100.00;98388.42;67847;1277;1016425;-59
2023/01/31 06:29:15;;;;;;;;;;;;;;;2.82;100.00;98407.91;67900;1277;1016407;-59
2023/01/31 06:32:18;;;;;;;;;;;;;;;2.88;100.00;98406.13;67897;1277;1016238;-59
2023/01/31 06:35:20;;;;;;;;;;;;;;;2.93;100.00;98409.76;67858;1277;1016475;-59
2023/01/31 06:38:23;;;;;;;;;;;;;;;2.90;100.00;98420.91;67859;1277;1016371;-59
2023/01/31 06:41:25;;;;;;;;;;;;;;;2.94;100.00;98412.15;67879;1277;1016454;-59
2023/01/31 06:44:27;;;;;;;;;;;;;;;2.91;100.00;98425.21;67902;1277;1017132;-59
2023/01/31 06:47:30;;;;;;;;;;;;;;;2.90;100.00;98420.39;67865;1277;1015729;-59
2023/01/31 06:50:32;;;;;;;;;;;;;;;2.87;100.00;98441.25;67824;1277;1016039;-59
2023/01/31 06:53:35;;;;;;;;;;;;;;;2.89;100.00;98442.55;67868;1277;1016478;-59
2023/01/31 06:56:37;;;;;;;;;;;;;;;2.94;100.00;98452.39;67844;1277;1017814;-59
2023/01/31 06:59:39;;;;;;;;;;;;;;;2.94;100.00;98461.37;67883;1277;1016215;-59
2023/01/31 07:02:42;;;;;;;;;;;;;;;3.00;100.00;98467.72;67895;1277;1016459;-59
2023/01/31 07:05:44;;;;;;;;;;;;;;;2.97;100.00;98470.08;67850;1277;1016189;-59
2023/01/31 07:08:47;;;;;;;;;;;;;;;2.94;100.00;98470.52;67849;1278;1016302;-59
2023/01/31 07:11:49;;;;;;;;;;;;;;;3.03;100.00;98475.73;67828;1277;1016203;-59
2023/01/31 07:14:51;;;;;;;;;;;;;;;3.03;100.00;98484.73;67893;1277;1016443;-59
2023/01/31 07:17:54;;;;;;;;;;;;;;;3.04;100.00;98491.78;67889;1277;1017016;-59
2023/01/31 07:20:56;;;;;;;;;;;;;;;3.10;100.00;98485.66;67864;1277;1019459;-59
2023/01/31 07:23:59;;;;;;;;;;;;;;;3.16;100.00;98496.36;67844;1277;1016885;-59
2023/01/31 07:27:01;;;;;;;;;;;;;;;3.18;100.00;98492.66;67817;1277;1016446;-59
2023/01/31 07:30:03;;;;;;;;;;;;;;;3.16;100.00;98496.34;67854;1277;1016401;-59
2023/01/31 07:33:06;;;;;;;;;;;;;;;3.07;100.00;98498.40;67897;1277;1016418;-59
2023/01/31 07:36:08;;;;;;;;;;;;;;;3.16;100.00;98500.83;67882;1277;1016454;-59
2023/01/31 07:39:12;;;;;;;;;;;;;;;3.25;100.00;98498.59;67849;1277;1016217;-59
2023/01/31 07:42:14;;;;;;;;;;;;;;;3.28;100.00;98510.08;67873;1277;1016289;-59
2023/01/31 07:45:17;;;;;;;;;;;;;;;3.27;100.00;98506.48;67905;1277;1015949;-59
2023/01/31 07:48:22;;;;;;;;;;;;;;;3.20;100.00;98510.87;67866;1277;1016972;-59
2023/01/31 07:51:24;;;;;;;;;;;;;;;3.11;100.00;98514.83;67868;1277;1016423;-59
2023/01/31 07:54:27;;;;;;;;;;;;;;;3.18;100.00;98516.30;67893;1277;1016503;-59
2023/01/31 07:57:29;;;;;;;;;;;;;;;3.14;100.00;98520.77;67826;1277;1016205;-59
2023/01/31 08:03:52;;;;;;;;;;;;;;;3.07;100.00;98531.91;67844;1277;1016465;-59
2023/01/31 08:06:54;;;;;;;;;;;;;;;3.15;100.00;98526.29;67862;1277;1016432;-59
2023/01/31 08:09:56;;;;;;;;;;;;;;;3.20;100.00;98529.72;67856;1277;1016371;-59
2023/01/31 08:12:59;;;;;;;;;;;;;;;3.21;100.00;98532.27;67889;1277;1017452;-59
2023/01/31 08:16:01;;;;;;;;;;;;;;;3.26;100.00;98535.56;67833;1277;1016300;-58
2023/01/31 08:19:04;;;;;;;;;;;;;;;3.38;100.00;98541.35;67871;1277;1016298;-59
2023/01/31 08:22:06;;;;;;;;;;;;;;;3.42;100.00;98549.14;67890;1277;1015894;-59
2023/01/31 08:25:09;;;;;;;;;;;;;;;3.35;100.00;98554.94;67901;1277;1016606;-59
2023/01/31 08:28:12;;;;;;;;;;;;;;;3.33;100.00;98556.42;67855;1277;1015927;-59
2023/01/31 08:31:14;;;;;;;;;;;;;;;3.33;100.00;98563.84;67900;1277;1016766;-59
2023/01/31 08:34:17;;;;;;;;;;;;;;;3.39;100.00;98560.33;67873;1277;1016406;-59
2023/01/31 08:37:19;;;;;;;;;;;;;;;3.46;100.00;98565.59;67896;1277;1018075;-59
2023/01/31 08:40:21;;;;;;;;;;;;;;;3.57;100.00;98573.00;67805;1277;1016676;-59
2023/01/31 08:43:24;;;;;;;;;;;;;;;3.43;100.00;98577.48;67848;1277;1018669;-59
2023/01/31 08:46:26;;;;;;;;;;;;;;;3.40;100.00;98578.96;67802;1277;1016458;-59
2023/01/31 08:49:29;;;;;;;;;;;;;;;3.41;100.00;98585.66;67870;1277;1016193;-59
2023/01/31 08:52:34;;;;;;;;;;;;;;;3.60;100.00;98587.23;67896;1277;1016454;-59
2023/01/31 08:55:36;;;;;;;;;;;;;;;3.58;100.00;98591.99;67818;1278;1016468;-59
2023/01/31 08:58:40;;;;;;;;;;;;;;;3.62;100.00;98590.45;67863;1277;1017283;-59
2023/01/31 09:01:45;;;;;;;;;;;;;;;3.52;100.00;98586.67;67812;1277;1016510;-59
2023/01/31 09:04:48;;;;;;;;;;;;;;;3.64;100.00;98590.22;67855;1278;1016251;-59
2023/01/31 09:07:50;;;;;;;;;;;;;;;3.66;100.00;98585.46;67816;1277;1016495;-59
2023/01/31 09:10:55;;;;;;;;;;;;;;;3.50;100.00;98592.09;67842;1277;1016238;-59
2023/01/31 09:13:58;;;;;;;;;;;;;;;3.47;100.00;98592.20;67860;1277;1016448;-59
2023/01/31 09:17:00;;;;;;;;;;;;;;;3.47;100.00;98594.62;67838;1277;1019436;-59
2023/01/31 09:20:05;;;;;;;;;;;;;;;3.42;100.00;98606.56;67833;1277;1017289;-59
2023/01/31 09:23:07;;;;;;;;;;;;;;;3.42;100.00;98610.70;67884;1277;1016456;-59
2023/01/31 09:26:10;;;;;;;;;;;;;;;3.43;100.00;98613.43;67910;1277;1016181;-59
2023/01/31 09:29:12;;;;;;;;;;;;;;;3.47;100.00;98613.97;67808;1277;1016708;-59
2023/01/31 09:32:15;;;;;;;;;;;;;;;3.46;100.00;98617.63;67828;1277;1016129;-59
2023/01/31 09:35:18;;;;;;;;;;;;;;;3.43;100.00;98621.38;67841;1277;1016280;-59
2023/01/31 09:38:20;;;;;;;;;;;;;;;3.47;100.00;98623.83;67900;1278;1016421;-59
2023/01/31 09:41:22;;;;;;;;;;;;;;;3.48;100.00;98631.76;67861;1277;1016130;-59
2023/01/31 09:44:25;;;;;;;;;;;;;;;3.50;100.00;98627.38;67870;1277;1016442;-59
2023/01/31 09:47:29;;;;;;;;;;;;;;;3.53;100.00;98622.77;67821;1278;1016148;-59
2023/01/31 09:50:31;;;;;;;;;;;;;;;3.58;100.00;98632.59;67837;1277;1016236;-59
2023/01/31 09:53:34;;;;;;;;;;;;;;;3.58;100.00;98638.14;67862;1277;1016487;-59
2023/01/31 09:56:36;;;;;;;;;;;;;;;3.60;100.00;98635.30;67882;1277;1018988;-59
2023/01/31 09:59:38;;;;;;;;;;;;;;;3.63;100.00;98637.95;67873;1277;1018653;-59
2023/01/31 10:02:41;;;;;;;;;;;;;;;3.55;100.00;98636.19;67870;1278;1016513;-59
2023/01/31 10:05:43;;;;;;;;;;;;;;;3.50;100.00;98638.44;67846;1277;1016485;-59
2023/01/31 10:08:46;;;;;;;;;;;;;;;3.56;100.00;98633.73;67857;1277;1016508;-59
2023/01/31 10:11:48;;;;;;;;;;;;;;;3.55;100.00;98635.16;67877;1277;1016278;-59
2023/01/31 10:14:50;;;;;;;;;;;;;;;3.60;100.00;98633.93;67885;1277;1016224;-59
2023/01/31 10:17:53;;;;;;;;;;;;;;;3.62;100.00;98631.95;67822;1278;1016425;-59
2023/01/31 10:20:55;;;;;;;;;;;;;;;3.71;100.00;98636.65;67831;1277;1016477;-59
2023/01/31 10:23:58;;;;;;;;;;;;;;;3.71;100.00;98641.86;67803;1277;1016340;-59
2023/01/31 10:27:00;;;;;;;;;;;;;;;3.75;100.00;98643.95;67817;1278;1016822;-58
2023/01/31 10:30:03;;;;;;;;;;;;;;;3.71;100.00;98639.42;67888;1278;1016551;-59
2023/01/31 10:33:05;;;;;;;;;;;;;;;3.63;100.00;98653.17;67896;1278;1018084;-59
2023/01/31 10:36:07;;;;;;;;;;;;;;;3.69;100.00;98658.85;67836;1278;1016520;-59
2023/01/31 10:39:10;;;;;;;;;;;;;;;3.72;100.00;98655.13;67838;1278;1016341;-59
2023/01/31 10:42:13;;;;;;;;;;;;;;;3.69;100.00;98657.11;67875;1278;1016432;-59
2023/01/31 10:45:15;;;;;;;;;;;;;;;3.71;100.00;98659.63;67898;1277;1016832;-59
2023/01/31 10:48:18;;;;;;;;;;;;;;;3.67;100.00;98652.85;67833;1278;1016756;-59
2023/01/31 10:51:23;;;;;;;;;;;;;;;3.69;100.00;98648.46;67869;1278;1016342;-59
2023/01/31 10:54:25;;;;;;;;;;;;;;;3.60;100.00;98649.65;67883;1278;1016953;-59
2023/01/31 10:57:28;;;;;;;;;;;;;;;3.59;100.00;98640.87;67828;1278;1016324;-59
2023/01/31 11:00:30;;;;;;;;;;;;;;;3.56;100.00;98649.27;67822;1278;1018590;-58
2023/01/31 11:03:32;;;;;;;;;;;;;;;3.51;100.00;98639.77;67822;1278;1016469;-59
2023/01/31 11:06:35;;;;;;;;;;;;;;;3.48;100.00;98640.20;67870;1278;1016494;-59
2023/01/31 11:09:37;;;;;;;;;;;;;;;3.56;100.00;98638.55;67857;1278;1016871;-59
2023/01/31 11:12:40;;;;;;;;;;;;;;;3.59;100.00;98637.94;67865;1278;1016423;-59
2023/01/31 11:15:42;;;;;;;;;;;;;;;3.60;100.00;98636.52;67819;1278;1016316;-59
2023/01/31 11:18:45;;;;;;;;;;;;;;;3.61;100.00;98635.29;67868;1278;1016499;-59
2023/01/31 11:21:47;;;;;;;;;;;;;;;3.65;100.00;98631.67;67896;1278;1016236;-58
2023/01/31 11:24:50;;;;;;;;;;;;;;;3.64;100.00;98629.45;67882;1278;1016569;-59
2023/01/31 11:27:52;;;;;;;;;;;;;;;3.72;100.00;98628.99;67841;1277;1016532;-59
2023/01/31 11:30:54;;;;;;;;;;;;;;;3.74;100.00;98629.95;67831;1278;1016467;-58
2023/01/31 11:33:57;;;;;;;;;;;;;;;3.71;100.00;98624.02;67848;1278;1016245;-59
2023/01/31 11:36:59;;;;;;;;;;;;;;;3.65;100.00;98625.63;67850;1278;1016264;-59
2023/01/31 11:40:01;;;;;;;;;;;;;;;3.64;100.00;98623.91;67885;1278;1016452;-59
2023/01/31 11:43:04;;;;;;;;;;;;;;;3.67;100.00;98607.56;67851;1278;1016944;-59
2023/01/31 11:46:06;;;;;;;;;;;;;;;3.67;100.00;98615.36;67832;1277;1017478;-58
2023/01/31 11:49:09;;;;;;;;;;;;;;;3.76;100.00;98604.28;67838;1278;1016135;-59
2023/01/31 11:52:11;;;;;;;;;;;;;;;3.79;100.00;98611.45;67818;1277;1016368;-59
2023/01/31 11:55:14;;;;;;;;;;;;;;;3.72;100.00;98612.39;67870;1278;1016059;-59
2023/01/31 11:58:16;;;;;;;;;;;;;;;3.73;100.00;98606.31;67860;1277;1017436;-59
2023/01/31 12:01:19;;;;;;;;;;;;;;;3.77;100.00;98608.06;67826;1278;1016490;-59
2023/01/31 12:04:24;;;;;;;;;;;;;;;3.77;100.00;98607.89;67878;1278;1016496;-59
2023/01/31 12:07:27;;;;;;;;;;;;;;;3.86;100.00;98611.54;67889;1277;1015842;-59
2023/01/31 12:10:30;;;;;;;;;;;;;;;3.84;100.00;98610.92;65424;1278;5373451;-60
2023/01/31 12:13:32;;;;;;;;;;;;;;;3.77;100.00;98613.95;67794;1277;1016532;-59
2023/01/31 12:16:36;;;;;;;;;;;;;;;3.83;100.00;98609.05;67816;1277;1015872;-59
2023/01/31 12:19:38;;;;;;;;;;;;;;;3.83;100.00;98602.99;67822;1277;1016472;-59
2023/01/31 12:22:41;;;;;;;;;;;;;;;3.91;100.00;98595.43;67804;1277;1016710;-59
2023/01/31 12:25:43;;;;;;;;;;;;;;;3.88;100.00;98597.29;67795;1277;1015967;-59
2023/01/31 12:28:46;;;;;;;;;;;;;;;3.93;100.00;98594.49;67882;1278;1015856;-59
2023/01/31 12:31:48;;;;;;;;;;;;;;;3.98;100.00;98591.39;67867;1278;1016944;-59
2023/01/31 12:34:50;;;;;;;;;;;;;;;3.97;100.00;98588.66;67886;1277;1016155;-59
2023/01/31 12:37:53;;;;;;;;;;;;;;;3.97;100.00;98588.45;67829;1278;1016391;-59
2023/01/31 12:40:55;;;;;;;;;;;;;;;3.89;100.00;98586.17;67834;1278;1016687;-59
2023/01/31 12:43:58;;;;;;;;;;;;;;;3.90;100.00;98580.61;67856;1277;1017170;-59
2023/01/31 12:47:00;;;;;;;;;;;;;;;3.93;100.00;98569.94;67868;1278;1016476;-59
2023/01/31 12:50:03;;;;;;;;;;;;;;;3.98;100.00;98562.66;67852;1277;1016444;-59
2023/01/31 12:53:05;;;;;;;;;;;;;;;4.06;100.00;98559.24;67816;1277;1016012;-59
2023/01/31 12:56:08;;;;;;;;;;;;;;;4.11;100.00;98558.02;67850;1278;1016379;-59
2023/01/31 12:59:10;;;;;;;;;;;;;;;4.13;100.00;98551.20;67883;1277;1016437;-59
2023/01/31 13:02:13;;;;;;;;;;;;;;;4.12;100.00;98549.65;67863;1278;1016515;-59
2023/01/31 13:05:15;;;;;;;;;;;;;;;4.12;100.00;98557.79;67805;1278;1016121;-59
2023/01/31 13:08:18;;;;;;;;;;;;;;;4.21;100.00;98558.30;67810;1277;1016375;-59
2023/01/31 13:11:20;;;;;;;;;;;;;;;4.13;100.00;98566.58;67892;1277;1016229;-59
2023/01/31 13:14:22;;;;;;;;;;;;;;;4.14;100.00;98564.45;67875;1277;1016296;-59
2023/01/31 13:17:25;;;;;;;;;;;;;;;4.12;100.00;98561.58;67818;1278;1016787;-59
2023/01/31 13:20:28;;;;;;;;;;;;;;;4.00;100.00;98566.22;67839;1278;1016513;-59
2023/01/31 13:23:30;;;;;;;;;;;;;;;4.02;100.00;98560.95;67884;1278;1016307;-59
2023/01/31 13:26:32;;;;;;;;;;;;;;;4.08;100.00;98560.73;67856;1278;1016445;-59
2023/01/31 13:33:13;;;;;;;;;;;;;;;4.02;100.00;98557.82;67808;1278;1016518;-59
2023/01/31 13:36:15;;;;;;;;;;;;;;;4.01;100.00;98562.20;67816;1277;1016493;-58
2023/01/31 13:39:20;;;;;;;;;;;;;;;3.89;100.00;98561.27;67867;1277;1017675;-59
2023/01/31 13:42:22;;;;;;;;;;;;;;;3.85;100.00;98555.88;67867;1277;1019439;-59
2023/01/31 13:45:24;;;;;;;;;;;;;;;3.87;100.00;98558.95;67869;1278;1016317;-59
2023/01/31 13:48:27;;;;;;;;;;;;;;;3.89;100.00;98559.35;67860;1278;1017109;-58
2023/01/31 13:51:29;;;;;;;;;;;;;;;3.93;100.00;98553.16;67826;1277;1016868;-58
2023/01/31 13:54:32;;;;;;;;;;;;;;;4.02;100.00;98550.58;67852;1278;1016371;-58
2023/01/31 13:57:34;;;;;;;;;;;;;;;4.03;100.00;98557.27;67884;1278;1016295;-58
2023/01/31 14:00:36;;;;;;;;;;;;;;;4.06;100.00;98554.72;67875;1278;1018560;-59
2023/01/31 14:03:39;;;;;;;;;;;;;;;3.99;100.00;98556.05;67820;1278;1016240;-58
2023/01/31 14:06:41;;;;;;;;;;;;;;;4.01;100.00;98551.45;67814;1278;1016192;-58
2023/01/31 14:09:43;;;;;;;;;;;;;;;4.15;100.00;98548.83;67822;1278;1015977;-58
2023/01/31 14:12:47;;;;;;;;;;;;;;;4.04;100.00;98544.95;67880;1278;1018090;-58
2023/01/31 14:15:50;;;;;;;;;;;;;;;4.00;100.00;98530.75;67837;1278;1016613;-58
2023/01/31 14:18:52;;;;;;;;;;;;;;;3.91;100.00;98528.48;67826;1278;1016443;-59
2023/01/31 14:21:56;;;;;;;;;;;;;;;3.79;100.00;98524.42;67887;1278;1018907;-58
2023/01/31 14:24:59;;;;;;;;;;;;;;;3.76;100.00;98526.98;67862;1278;1016478;-58
2023/01/31 14:28:02;;;;;;;;;;;;;;;3.64;100.00;98528.82;67858;1278;1016191;-58
2023/01/31 14:31:04;;;;;;;;;;;;;;;3.59;100.00;98527.09;67875;1278;1016375;-58
2023/01/31 14:34:07;;;;;;;;;;;;;;;3.59;100.00;98517.07;67867;1278;1016314;-58
2023/01/31 14:37:10;;;;;;;;;;;;;;;3.68;100.00;98519.69;67883;1278;1016845;-58
2023/01/31 14:40:12;;;;;;;;;;;;;;;3.63;100.00;98529.52;67861;1278;1016195;-58
2023/01/31 14:43:15;;;;;;;;;;;;;;;3.72;100.00;98527.83;67884;1278;1017576;-58
2023/01/31 14:46:17;;;;;;;;;;;;;;;3.71;100.00;98516.62;67865;1277;1016532;-58
2023/01/31 14:49:19;;;;;;;;;;;;;;;3.67;100.00;98516.79;67819;1278;1020121;-58
2023/01/31 14:52:22;;;;;;;;;;;;;;;3.69;100.00;98509.61;67799;1278;1016543;-58
2023/01/31 14:55:24;;;;;;;;;;;;;;;3.66;100.00;98501.92;67823;1278;1016469;-58
2023/01/31 14:58:26;;;;;;;;;;;;;;;3.65;100.00;98503.02;67895;1278;1016455;-58
2023/01/31 15:01:29;;;;;;;;;;;;;;;3.68;100.00;98501.50;67882;1278;1016131;-58
2023/01/31 15:04:31;;;;;;;;;;;;;;;3.62;100.00;98499.50;67873;1277;1016502;-58
2023/01/31 15:07:34;;;;;;;;;;;;;;;3.60;100.00;98491.98;67862;1277;1016194;-58
2023/01/31 15:10:36;;;;;;;;;;;;;;;3.62;100.00;98486.18;67842;1277;1017681;-58
2023/01/31 15:13:39;;;;;;;;;;;;;;;3.65;100.00;98484.86;67875;1277;1015762;-58
2023/01/31 15:16:41;;;;;;;;;;;;;;;3.71;100.00;98482.55;67864;1277;1016919;-59
2023/01/31 15:19:43;;;;;;;;;;;;;;;3.67;100.00;98482.52;67848;1278;1017380;-58
2023/01/31 15:22:46;;;;;;;;;;;;;;;3.54;100.00;98478.89;67801;1277;1016439;-58
2023/01/31 15:25:48;;;;;;;;;;;;;;;3.59;100.00;98482.30;67821;1277;1016606;-58
2023/01/31 15:28:51;;;;;;;;;;;;;;;3.62;100.00;98472.17;67828;1277;1016489;-59
2023/01/31 15:31:53;;;;;;;;;;;;;;;3.64;100.00;98466.75;67838;1277;1016495;-58
2023/01/31 15:34:55;;;;;;;;;;;;;;;3.67;100.00;98467.50;67836;1277;1016307;-58
2023/01/31 15:38:00;;;;;;;;;;;;;;;3.63;100.00;98459.84;67826;1277;1018094;-58